Englewood, Colorado
Current Conditions -  °F | °C
As of 2:53 AM on Sunday 23 Nov 2014 (Local Time) from KAPA Reporting Station
Light Snow Light Snow  
Wind Chill: 40°   Ceiling: 3200
Heat Index: 40°   Visibility: 7mi
Dew Point: 30°   Wind: 3mph
Humidity: 68%   Direction: NA
Pressure: 29.65"   Gusts: NA
Location:  39.65°N, 104.99°W
Report Text: KAPA 230953Z VRB03KT 7SM -SNRA OVC032 04/M01 A2965 RMK AO2 RAB26SNB50 SLP011 P0000 T00441011
Loading
Personal Weather Stations






























Interactive Weather Map New forecast layout! Learn more

10-Day Weather Forecast

Advertisements
Track Severe Weather on mobile